sensor_id;sensor_type;location;lat;lon;timestamp;temperature;humidity
10538;DHT22;5317;49.048;8.468;2022-12-18T00:00:02;24.10;37.20
10538;DHT22;5317;49.048;8.468;2022-12-18T00:02:30;24.10;37.30
10538;DHT22;5317;49.048;8.468;2022-12-18T00:05:01;24.00;37.80
10538;DHT22;5317;49.048;8.468;2022-12-18T00:07:28;24.00;37.10
10538;DHT22;5317;49.048;8.468;2022-12-18T00:09:55;24.10;37.20
10538;DHT22;5317;49.048;8.468;2022-12-18T00:12:22;24.00;37.00
10538;DHT22;5317;49.048;8.468;2022-12-18T00:14:51;24.10;37.20
10538;DHT22;5317;49.048;8.468;2022-12-18T00:17:18;24.00;37.10
10538;DHT22;5317;49.048;8.468;2022-12-18T00:19:48;24.00;37.10
10538;DHT22;5317;49.048;8.468;2022-12-18T00:22:16;24.10;37.10
10538;DHT22;5317;49.048;8.468;2022-12-18T00:24:43;24.00;37.00
10538;DHT22;5317;49.048;8.468;2022-12-18T00:27:10;24.00;37.10
10538;DHT22;5317;49.048;8.468;2022-12-18T00:29:40;24.00;37.10
10538;DHT22;5317;49.048;8.468;2022-12-18T00:32:08;24.00;37.00
10538;DHT22;5317;49.048;8.468;2022-12-18T00:34:36;24.00;37.10
10538;DHT22;5317;49.048;8.468;2022-12-18T00:37:03;24.00;37.10
10538;DHT22;5317;49.048;8.468;2022-12-18T00:39:30;24.00;37.00
10538;DHT22;5317;49.048;8.468;2022-12-18T00:41:57;24.00;37.00
10538;DHT22;5317;49.048;8.468;2022-12-18T00:44:42;24.00;37.00
10538;DHT22;5317;49.048;8.468;2022-12-18T00:47:11;24.00;37.00
10538;DHT22;5317;49.048;8.468;2022-12-18T00:49:41;24.00;37.00
10538;DHT22;5317;49.048;8.468;2022-12-18T00:52:08;24.00;37.10
10538;DHT22;5317;49.048;8.468;2022-12-18T00:54:35;24.00;36.90
10538;DHT22;5317;49.048;8.468;2022-12-18T00:57:03;24.00;37.00
10538;DHT22;5317;49.048;8.468;2022-12-18T00:59:30;24.00;37.00
10538;DHT22;5317;49.048;8.468;2022-12-18T01:01:57;24.00;37.00
10538;DHT22;5317;49.048;8.468;2022-12-18T01:04:26;23.90;36.90
10538;DHT22;5317;49.048;8.468;2022-12-18T01:06:54;23.90;36.80
10538;DHT22;5317;49.048;8.468;2022-12-18T01:09:21;24.00;37.00
10538;DHT22;5317;49.048;8.468;2022-12-18T01:11:48;23.90;36.80
10538;DHT22;5317;49.048;8.468;2022-12-18T01:14:16;24.00;36.90
10538;DHT22;5317;49.048;8.468;2022-12-18T01:16:43;24.00;36.90
10538;DHT22;5317;49.048;8.468;2022-12-18T01:19:10;24.00;37.00
10538;DHT22;5317;49.048;8.468;2022-12-18T01:21:39;24.00;36.90
10538;DHT22;5317;49.048;8.468;2022-12-18T01:24:06;23.90;36.80
10538;DHT22;5317;49.048;8.468;2022-12-18T01:26:33;24.00;36.90
10538;DHT22;5317;49.048;8.468;2022-12-18T01:29:00;24.00;36.90
10538;DHT22;5317;49.048;8.468;2022-12-18T01:31:29;24.00;36.90
10538;DHT22;5317;49.048;8.468;2022-12-18T01:34:00;24.00;37.00
10538;DHT22;5317;49.048;8.468;2022-12-18T01:36:31;24.00;37.50
10538;DHT22;5317;49.048;8.468;2022-12-18T01:39:02;24.00;36.90
10538;DHT22;5317;49.048;8.468;2022-12-18T01:41:34;24.00;36.90
10538;DHT22;5317;49.048;8.468;2022-12-18T01:44:57;24.00;36.90
10538;DHT22;5317;49.048;8.468;2022-12-18T01:47:32;24.00;36.90
10538;DHT22;5317;49.048;8.468;2022-12-18T01:50:06;24.00;36.90
10538;DHT22;5317;49.048;8.468;2022-12-18T01:52:36;24.00;36.80
10538;DHT22;5317;49.048;8.468;2022-12-18T01:55:07;24.00;36.80
10538;DHT22;5317;49.048;8.468;2022-12-18T01:57:36;24.00;36.80
10538;DHT22;5317;49.048;8.468;2022-12-18T02:00:07;24.00;36.80
10538;DHT22;5317;49.048;8.468;2022-12-18T02:02:41;24.00;36.80
10538;DHT22;5317;49.048;8.468;2022-12-18T02:05:10;24.00;36.80
10538;DHT22;5317;49.048;8.468;2022-12-18T02:07:48;24.00;36.80
10538;DHT22;5317;49.048;8.468;2022-12-18T02:10:30;24.00;36.80
10538;DHT22;5317;49.048;8.468;2022-12-18T02:13:06;24.00;36.80
10538;DHT22;5317;49.048;8.468;2022-12-18T02:15:43;24.00;36.80
10538;DHT22;5317;49.048;8.468;2022-12-18T02:18:20;24.00;36.80
10538;DHT22;5317;49.048;8.468;2022-12-18T02:20:54;24.00;36.80
10538;DHT22;5317;49.048;8.468;2022-12-18T02:23:40;24.00;36.80
10538;DHT22;5317;49.048;8.468;2022-12-18T02:26:23;24.00;36.80
10538;DHT22;5317;49.048;8.468;2022-12-18T02:28:58;24.00;36.80
10538;DHT22;5317;49.048;8.468;2022-12-18T02:31:33;24.00;36.80
10538;DHT22;5317;49.048;8.468;2022-12-18T02:34:07;24.00;36.80
10538;DHT22;5317;49.048;8.468;2022-12-18T02:36:38;24.00;37.00
10538;DHT22;5317;49.048;8.468;2022-12-18T02:39:11;24.00;36.80
10538;DHT22;5317;49.048;8.468;2022-12-18T02:41:42;24.00;36.70
10538;DHT22;5317;49.048;8.468;2022-12-18T02:44:11;24.00;36.70
10538;DHT22;5317;49.048;8.468;2022-12-18T02:46:42;24.10;36.80
10538;DHT22;5317;49.048;8.468;2022-12-18T02:49:21;24.10;36.80
10538;DHT22;5317;49.048;8.468;2022-12-18T02:52:05;24.00;36.80
10538;DHT22;5317;49.048;8.468;2022-12-18T02:54:55;24.00;36.80
10538;DHT22;5317;49.048;8.468;2022-12-18T02:57:34;24.00;36.80
10538;DHT22;5317;49.048;8.468;2022-12-18T03:00:10;24.00;36.80
10538;DHT22;5317;49.048;8.468;2022-12-18T03:02:44;24.00;36.70
10538;DHT22;5317;49.048;8.468;2022-12-18T03:05:18;24.00;36.70
10538;DHT22;5317;49.048;8.468;2022-12-18T03:07:52;24.00;36.70
10538;DHT22;5317;49.048;8.468;2022-12-18T03:10:27;24.00;36.70
10538;DHT22;5317;49.048;8.468;2022-12-18T03:13:02;24.10;37.40
10538;DHT22;5317;49.048;8.468;2022-12-18T03:15:34;24.00;36.70
10538;DHT22;5317;49.048;8.468;2022-12-18T03:18:07;24.10;36.80
10538;DHT22;5317;49.048;8.468;2022-12-18T03:20:42;24.00;36.70
10538;DHT22;5317;49.048;8.468;2022-12-18T03:23:13;24.00;36.70
10538;DHT22;5317;49.048;8.468;2022-12-18T03:25:44;24.00;36.70
10538;DHT22;5317;49.048;8.468;2022-12-18T03:28:18;24.00;36.60
10538;DHT22;5317;49.048;8.468;2022-12-18T03:30:52;24.00;36.70
10538;DHT22;5317;49.048;8.468;2022-12-18T03:33:27;24.00;36.60
10538;DHT22;5317;49.048;8.468;2022-12-18T03:35:58;24.00;36.60
10538;DHT22;5317;49.048;8.468;2022-12-18T03:38:25;24.00;36.60
10538;DHT22;5317;49.048;8.468;2022-12-18T03:41:15;24.00;36.50
10538;DHT22;5317;49.048;8.468;2022-12-18T03:43:52;24.10;36.60
10538;DHT22;5317;49.048;8.468;2022-12-18T03:46:33;24.10;36.70
10538;DHT22;5317;49.048;8.468;2022-12-18T03:49:10;24.00;36.60
10538;DHT22;5317;49.048;8.468;2022-12-18T03:51:45;24.00;36.60
10538;DHT22;5317;49.048;8.468;2022-12-18T03:54:18;24.00;36.60
10538;DHT22;5317;49.048;8.468;2022-12-18T03:56:49;24.00;36.60
10538;DHT22;5317;49.048;8.468;2022-12-18T03:59:23;24.00;36.60
10538;DHT22;5317;49.048;8.468;2022-12-18T04:01:54;24.10;36.60
10538;DHT22;5317;49.048;8.468;2022-12-18T04:04:26;24.00;36.60
10538;DHT22;5317;49.048;8.468;2022-12-18T04:06:55;24.00;36.60
10538;DHT22;5317;49.048;8.468;2022-12-18T04:09:24;24.00;36.60
10538;DHT22;5317;49.048;8.468;2022-12-18T04:11:52;24.00;36.50
10538;DHT22;5317;49.048;8.468;2022-12-18T04:14:20;24.00;36.50
10538;DHT22;5317;49.048;8.468;2022-12-18T04:16:48;24.10;36.60
10538;DHT22;5317;49.048;8.468;2022-12-18T04:19:16;24.10;36.60
10538;DHT22;5317;49.048;8.468;2022-12-18T04:21:43;24.10;36.60
10538;DHT22;5317;49.048;8.468;2022-12-18T04:24:10;24.10;36.50
10538;DHT22;5317;49.048;8.468;2022-12-18T04:26:38;24.10;36.50
10538;DHT22;5317;49.048;8.468;2022-12-18T04:29:05;24.00;36.50
10538;DHT22;5317;49.048;8.468;2022-12-18T04:31:32;24.00;36.40
10538;DHT22;5317;49.048;8.468;2022-12-18T04:34:01;24.00;36.40
10538;DHT22;5317;49.048;8.468;2022-12-18T04:36:28;24.00;36.50
10538;DHT22;5317;49.048;8.468;2022-12-18T04:38:56;24.00;36.40
10538;DHT22;5317;49.048;8.468;2022-12-18T04:41:23;24.00;36.40
10538;DHT22;5317;49.048;8.468;2022-12-18T04:43:50;24.00;36.40
10538;DHT22;5317;49.048;8.468;2022-12-18T04:46:17;24.00;36.40
10538;DHT22;5317;49.048;8.468;2022-12-18T04:48:45;24.00;36.50
10538;DHT22;5317;49.048;8.468;2022-12-18T04:51:14;24.00;36.50
10538;DHT22;5317;49.048;8.468;2022-12-18T04:53:42;24.00;36.40
10538;DHT22;5317;49.048;8.468;2022-12-18T04:56:11;24.00;36.40
10538;DHT22;5317;49.048;8.468;2022-12-18T04:58:41;24.00;36.40
10538;DHT22;5317;49.048;8.468;2022-12-18T05:01:10;24.00;36.40
10538;DHT22;5317;49.048;8.468;2022-12-18T05:03:38;23.90;36.40
10538;DHT22;5317;49.048;8.468;2022-12-18T05:06:06;23.90;36.30
10538;DHT22;5317;49.048;8.468;2022-12-18T05:08:35;24.00;36.40
10538;DHT22;5317;49.048;8.468;2022-12-18T05:11:05;23.90;36.20
10538;DHT22;5317;49.048;8.468;2022-12-18T05:13:34;23.90;36.30
10538;DHT22;5317;49.048;8.468;2022-12-18T05:16:02;23.90;36.30
10538;DHT22;5317;49.048;8.468;2022-12-18T05:18:30;24.00;36.30
10538;DHT22;5317;49.048;8.468;2022-12-18T05:20:58;24.00;36.20
10538;DHT22;5317;49.048;8.468;2022-12-18T05:23:25;24.00;36.20
10538;DHT22;5317;49.048;8.468;2022-12-18T05:25:56;24.00;36.20
10538;DHT22;5317;49.048;8.468;2022-12-18T05:28:27;24.00;36.20
10538;DHT22;5317;49.048;8.468;2022-12-18T05:30:57;24.00;36.20
10538;DHT22;5317;49.048;8.468;2022-12-18T05:33:28;24.00;36.30
10538;DHT22;5317;49.048;8.468;2022-12-18T05:35:58;23.90;36.10
10538;DHT22;5317;49.048;8.468;2022-12-18T05:38:27;24.00;36.20
10538;DHT22;5317;49.048;8.468;2022-12-18T05:40:57;24.00;36.20
10538;DHT22;5317;49.048;8.468;2022-12-18T05:43:25;24.00;36.10
10538;DHT22;5317;49.048;8.468;2022-12-18T05:45:53;24.00;36.10
10538;DHT22;5317;49.048;8.468;2022-12-18T05:48:22;24.00;36.10
10538;DHT22;5317;49.048;8.468;2022-12-18T05:50:50;24.00;36.10
10538;DHT22;5317;49.048;8.468;2022-12-18T05:53:19;24.00;35.90
10538;DHT22;5317;49.048;8.468;2022-12-18T05:55:47;24.00;36.10
10538;DHT22;5317;49.048;8.468;2022-12-18T05:58:16;24.00;36.00
10538;DHT22;5317;49.048;8.468;2022-12-18T06:00:45;24.00;36.00
10538;DHT22;5317;49.048;8.468;2022-12-18T06:03:13;24.00;36.10
10538;DHT22;5317;49.048;8.468;2022-12-18T06:05:42;24.00;36.10
10538;DHT22;5317;49.048;8.468;2022-12-18T06:08:11;24.00;36.10
10538;DHT22;5317;49.048;8.468;2022-12-18T06:10:38;24.00;36.10
10538;DHT22;5317;49.048;8.468;2022-12-18T06:13:07;24.00;36.00
10538;DHT22;5317;49.048;8.468;2022-12-18T06:15:37;24.00;36.10
10538;DHT22;5317;49.048;8.468;2022-12-18T06:18:05;24.10;36.00
10538;DHT22;5317;49.048;8.468;2022-12-18T06:20:32;24.00;35.90
10538;DHT22;5317;49.048;8.468;2022-12-18T06:23:02;24.00;35.90
10538;DHT22;5317;49.048;8.468;2022-12-18T06:25:30;24.00;36.00
10538;DHT22;5317;49.048;8.468;2022-12-18T06:27:57;24.00;35.80
10538;DHT22;5317;49.048;8.468;2022-12-18T06:30:25;24.00;35.90
10538;DHT22;5317;49.048;8.468;2022-12-18T06:32:54;24.00;35.90
10538;DHT22;5317;49.048;8.468;2022-12-18T06:35:22;24.00;35.90
10538;DHT22;5317;49.048;8.468;2022-12-18T06:37:50;24.00;35.90
10538;DHT22;5317;49.048;8.468;2022-12-18T06:40:17;24.00;35.90
10538;DHT22;5317;49.048;8.468;2022-12-18T06:42:44;24.00;35.90
10538;DHT22;5317;49.048;8.468;2022-12-18T06:45:12;24.00;35.90
10538;DHT22;5317;49.048;8.468;2022-12-18T06:47:39;24.00;35.80
10538;DHT22;5317;49.048;8.468;2022-12-18T06:50:08;24.00;35.80
10538;DHT22;5317;49.048;8.468;2022-12-18T06:52:35;24.00;35.80
10538;DHT22;5317;49.048;8.468;2022-12-18T06:55:08;24.00;35.80
10538;DHT22;5317;49.048;8.468;2022-12-18T06:57:38;24.00;35.90
10538;DHT22;5317;49.048;8.468;2022-12-18T07:00:07;24.00;35.80
10538;DHT22;5317;49.048;8.468;2022-12-18T07:02:35;24.00;36.50
10538;DHT22;5317;49.048;8.468;2022-12-18T07:05:02;24.00;35.90
10538;DHT22;5317;49.048;8.468;2022-12-18T07:07:33;23.90;35.90
10538;DHT22;5317;49.048;8.468;2022-12-18T07:10:00;24.00;35.90
10538;DHT22;5317;49.048;8.468;2022-12-18T07:12:27;24.00;35.80
10538;DHT22;5317;49.048;8.468;2022-12-18T07:14:55;24.00;35.80
10538;DHT22;5317;49.048;8.468;2022-12-18T07:17:22;24.00;35.80
10538;DHT22;5317;49.048;8.468;2022-12-18T07:19:49;24.00;35.80
10538;DHT22;5317;49.048;8.468;2022-12-18T07:22:16;24.00;35.80
10538;DHT22;5317;49.048;8.468;2022-12-18T07:24:45;24.00;35.80
10538;DHT22;5317;49.048;8.468;2022-12-18T07:27:12;24.00;35.70
10538;DHT22;5317;49.048;8.468;2022-12-18T07:29:39;24.10;35.80
10538;DHT22;5317;49.048;8.468;2022-12-18T07:32:07;24.00;35.70
10538;DHT22;5317;49.048;8.468;2022-12-18T07:34:34;24.00;35.80
10538;DHT22;5317;49.048;8.468;2022-12-18T07:37:02;24.00;35.80
10538;DHT22;5317;49.048;8.468;2022-12-18T07:39:30;24.00;35.80
10538;DHT22;5317;49.048;8.468;2022-12-18T07:41:58;24.00;35.80
10538;DHT22;5317;49.048;8.468;2022-12-18T07:44:44;24.10;35.90
10538;DHT22;5317;49.048;8.468;2022-12-18T07:47:11;24.10;35.90
10538;DHT22;5317;49.048;8.468;2022-12-18T07:49:42;24.00;35.90
10538;DHT22;5317;49.048;8.468;2022-12-18T07:52:09;24.10;36.10
10538;DHT22;5317;49.048;8.468;2022-12-18T07:54:38;24.10;36.00
10538;DHT22;5317;49.048;8.468;2022-12-18T07:57:07;24.10;36.20
10538;DHT22;5317;49.048;8.468;2022-12-18T07:59:35;24.10;36.30
10538;DHT22;5317;49.048;8.468;2022-12-18T08:02:02;24.00;36.20
10538;DHT22;5317;49.048;8.468;2022-12-18T08:04:29;24.10;36.30
10538;DHT22;5317;49.048;8.468;2022-12-18T08:06:57;24.10;36.40
10538;DHT22;5317;49.048;8.468;2022-12-18T08:09:24;24.10;36.40
10538;DHT22;5317;49.048;8.468;2022-12-18T08:11:51;24.10;36.40
10538;DHT22;5317;49.048;8.468;2022-12-18T08:14:20;24.10;36.60
10538;DHT22;5317;49.048;8.468;2022-12-18T08:16:48;24.10;36.70
10538;DHT22;5317;49.048;8.468;2022-12-18T08:19:15;24.10;36.80
10538;DHT22;5317;49.048;8.468;2022-12-18T08:21:42;24.10;36.60
10538;DHT22;5317;49.048;8.468;2022-12-18T08:24:09;24.10;36.80
10538;DHT22;5317;49.048;8.468;2022-12-18T08:26:38;24.10;36.80
10538;DHT22;5317;49.048;8.468;2022-12-18T08:29:05;24.10;36.90
10538;DHT22;5317;49.048;8.468;2022-12-18T08:31:34;24.10;37.00
10538;DHT22;5317;49.048;8.468;2022-12-18T08:34:01;24.10;37.00
10538;DHT22;5317;49.048;8.468;2022-12-18T08:36:29;24.20;37.10
10538;DHT22;5317;49.048;8.468;2022-12-18T08:38:56;24.20;37.20
10538;DHT22;5317;49.048;8.468;2022-12-18T08:41:24;24.20;37.30
10538;DHT22;5317;49.048;8.468;2022-12-18T08:43:51;24.20;37.40
10538;DHT22;5317;49.048;8.468;2022-12-18T08:46:39;24.20;37.30
10538;DHT22;5317;49.048;8.468;2022-12-18T08:49:08;24.20;37.50
10538;DHT22;5317;49.048;8.468;2022-12-18T08:51:37;24.20;37.50
10538;DHT22;5317;49.048;8.468;2022-12-18T08:54:05;24.20;37.50
10538;DHT22;5317;49.048;8.468;2022-12-18T08:56:32;24.20;37.50
10538;DHT22;5317;49.048;8.468;2022-12-18T08:59:00;24.30;37.50
10538;DHT22;5317;49.048;8.468;2022-12-18T09:01:27;24.30;37.50
10538;DHT22;5317;49.048;8.468;2022-12-18T09:03:56;24.30;37.50
10538;DHT22;5317;49.048;8.468;2022-12-18T09:06:24;24.30;36.40
10538;DHT22;5317;49.048;8.468;2022-12-18T09:08:52;24.30;37.30
10538;DHT22;5317;49.048;8.468;2022-12-18T09:11:21;24.20;36.30
10538;DHT22;5317;49.048;8.468;2022-12-18T09:13:50;24.20;37.10
10538;DHT22;5317;49.048;8.468;2022-12-18T09:16:19;24.20;37.20
10538;DHT22;5317;49.048;8.468;2022-12-18T09:18:47;24.20;37.30
10538;DHT22;5317;49.048;8.468;2022-12-18T09:21:18;24.20;37.30
10538;DHT22;5317;49.048;8.468;2022-12-18T09:23:49;24.20;37.40
10538;DHT22;5317;49.048;8.468;2022-12-18T09:26:21;24.30;37.50
10538;DHT22;5317;49.048;8.468;2022-12-18T09:28:49;24.30;37.40
10538;DHT22;5317;49.048;8.468;2022-12-18T09:31:18;24.30;37.30
10538;DHT22;5317;49.048;8.468;2022-12-18T09:33:46;24.30;37.30
10538;DHT22;5317;49.048;8.468;2022-12-18T09:36:16;24.30;37.30
10538;DHT22;5317;49.048;8.468;2022-12-18T09:38:45;24.30;37.30
10538;DHT22;5317;49.048;8.468;2022-12-18T09:41:25;24.40;37.30
10538;DHT22;5317;49.048;8.468;2022-12-18T09:44:14;24.40;37.30
10538;DHT22;5317;49.048;8.468;2022-12-18T09:46:52;24.40;37.30
10538;DHT22;5317;49.048;8.468;2022-12-18T09:49:28;24.30;37.20
10538;DHT22;5317;49.048;8.468;2022-12-18T09:52:13;24.40;37.30
10538;DHT22;5317;49.048;8.468;2022-12-18T09:54:50;24.30;36.00
10538;DHT22;5317;49.048;8.468;2022-12-18T09:57:23;24.20;36.70
10538;DHT22;5317;49.048;8.468;2022-12-18T09:59:55;24.20;36.90
10538;DHT22;5317;49.048;8.468;2022-12-18T10:02:29;24.30;37.00
10538;DHT22;5317;49.048;8.468;2022-12-18T10:05:05;24.30;37.00
10538;DHT22;5317;49.048;8.468;2022-12-18T10:07:45;24.30;37.10
10538;DHT22;5317;49.048;8.468;2022-12-18T10:10:30;24.30;37.10
10538;DHT22;5317;49.048;8.468;2022-12-18T10:13:09;24.30;37.20
10538;DHT22;5317;49.048;8.468;2022-12-18T10:15:54;24.30;37.20
10538;DHT22;5317;49.048;8.468;2022-12-18T10:22:46;24.30;37.20
10538;DHT22;5317;49.048;8.468;2022-12-18T10:25:23;24.20;37.20
10538;DHT22;5317;49.048;8.468;2022-12-18T10:27:58;24.20;37.20
10538;DHT22;5317;49.048;8.468;2022-12-18T10:30:47;24.30;37.30
10538;DHT22;5317;49.048;8.468;2022-12-18T10:33:18;24.30;37.20
10538;DHT22;5317;49.048;8.468;2022-12-18T10:35:50;24.40;37.40
10538;DHT22;5317;49.048;8.468;2022-12-18T10:38:25;24.30;37.20
10538;DHT22;5317;49.048;8.468;2022-12-18T10:40:55;24.40;37.40
10538;DHT22;5317;49.048;8.468;2022-12-18T10:43:26;24.40;37.40
10538;DHT22;5317;49.048;8.468;2022-12-18T10:46:01;24.40;37.40
10538;DHT22;5317;49.048;8.468;2022-12-18T10:49:00;24.40;37.40
10538;DHT22;5317;49.048;8.468;2022-12-18T10:51:42;24.40;37.40
10538;DHT22;5317;49.048;8.468;2022-12-18T10:57:45;24.40;37.50
10538;DHT22;5317;49.048;8.468;2022-12-18T11:00:24;24.30;37.40
10538;DHT22;5317;49.048;8.468;2022-12-18T11:02:55;24.30;37.40
10538;DHT22;5317;49.048;8.468;2022-12-18T11:05:27;24.40;37.50
10538;DHT22;5317;49.048;8.468;2022-12-18T11:07:58;24.40;37.50
10538;DHT22;5317;49.048;8.468;2022-12-18T11:10:31;24.50;37.50
10538;DHT22;5317;49.048;8.468;2022-12-18T11:13:21;24.40;37.30
10538;DHT22;5317;49.048;8.468;2022-12-18T11:15:51;24.40;37.30
10538;DHT22;5317;49.048;8.468;2022-12-18T11:18:22;24.40;37.40
10538;DHT22;5317;49.048;8.468;2022-12-18T11:21:13;24.40;37.40
10538;DHT22;5317;49.048;8.468;2022-12-18T11:23:47;24.30;37.20
10538;DHT22;5317;49.048;8.468;2022-12-18T11:26:18;24.40;37.30
10538;DHT22;5317;49.048;8.468;2022-12-18T11:28:49;24.30;37.30
10538;DHT22;5317;49.048;8.468;2022-12-18T11:31:23;24.30;37.20
10538;DHT22;5317;49.048;8.468;2022-12-18T11:34:01;24.40;37.30
10538;DHT22;5317;49.048;8.468;2022-12-18T11:36:36;24.30;37.20
10538;DHT22;5317;49.048;8.468;2022-12-18T11:39:14;24.30;37.20
10538;DHT22;5317;49.048;8.468;2022-12-18T11:41:52;24.30;37.20
10538;DHT22;5317;49.048;8.468;2022-12-18T11:44:45;24.30;37.20
10538;DHT22;5317;49.048;8.468;2022-12-18T11:47:21;24.30;37.20
10538;DHT22;5317;49.048;8.468;2022-12-18T11:49:55;24.30;37.20
10538;DHT22;5317;49.048;8.468;2022-12-18T11:52:33;24.30;37.20
10538;DHT22;5317;49.048;8.468;2022-12-18T11:55:14;24.20;37.20
10538;DHT22;5317;49.048;8.468;2022-12-18T11:57:51;24.30;37.30
10538;DHT22;5317;49.048;8.468;2022-12-18T12:00:25;24.20;37.20
10538;DHT22;5317;49.048;8.468;2022-12-18T12:03:16;24.30;37.30
10538;DHT22;5317;49.048;8.468;2022-12-18T12:06:08;24.20;37.20
10538;DHT22;5317;49.048;8.468;2022-12-18T12:09:02;24.20;37.20
10538;DHT22;5317;49.048;8.468;2022-12-18T12:11:47;24.20;37.20
10538;DHT22;5317;49.048;8.468;2022-12-18T12:14:47;24.20;37.20
10538;DHT22;5317;49.048;8.468;2022-12-18T12:17:37;24.20;37.80
10538;DHT22;5317;49.048;8.468;2022-12-18T12:20:32;24.20;37.20
10538;DHT22;5317;49.048;8.468;2022-12-18T12:23:20;24.10;37.10
10538;DHT22;5317;49.048;8.468;2022-12-18T12:26:29;24.20;37.20
10538;DHT22;5317;49.048;8.468;2022-12-18T12:29:33;24.20;37.20
10538;DHT22;5317;49.048;8.468;2022-12-18T12:32:46;24.20;37.20
10538;DHT22;5317;49.048;8.468;2022-12-18T12:36:21;24.20;37.20
10538;DHT22;5317;49.048;8.468;2022-12-18T12:38:40;24.20;37.30
10538;DHT22;5317;49.048;8.468;2022-12-18T12:41:22;24.20;37.40
10538;DHT22;5317;49.048;8.468;2022-12-18T12:44:14;24.20;37.50
10538;DHT22;5317;49.048;8.468;2022-12-18T12:46:48;24.20;37.50
10538;DHT22;5317;49.048;8.468;2022-12-18T12:49:19;24.10;37.40
10538;DHT22;5317;49.048;8.468;2022-12-18T12:51:59;24.20;37.50
10538;DHT22;5317;49.048;8.468;2022-12-18T12:54:37;24.20;37.50
10538;DHT22;5317;49.048;8.468;2022-12-18T12:57:10;24.20;37.40
10538;DHT22;5317;49.048;8.468;2022-12-18T12:59:50;24.20;37.40
10538;DHT22;5317;49.048;8.468;2022-12-18T13:02:34;24.20;37.30
10538;DHT22;5317;49.048;8.468;2022-12-18T13:05:14;24.20;37.40
10538;DHT22;5317;49.048;8.468;2022-12-18T13:07:57;24.20;37.30
10538;DHT22;5317;49.048;8.468;2022-12-18T13:10:34;24.20;37.30
10538;DHT22;5317;49.048;8.468;2022-12-18T13:13:04;24.20;37.30
10538;DHT22;5317;49.048;8.468;2022-12-18T13:15:36;24.20;37.20
10538;DHT22;5317;49.048;8.468;2022-12-18T13:18:19;24.20;37.20
10538;DHT22;5317;49.048;8.468;2022-12-18T13:21:07;24.20;37.20
10538;DHT22;5317;49.048;8.468;2022-12-18T13:23:53;24.20;37.20
10538;DHT22;5317;49.048;8.468;2022-12-18T13:26:40;24.30;37.20
10538;DHT22;5317;49.048;8.468;2022-12-18T13:29:16;24.30;37.10
10538;DHT22;5317;49.048;8.468;2022-12-18T13:32:23;24.30;37.20
10538;DHT22;5317;49.048;8.468;2022-12-18T13:38:21;24.30;37.10
10538;DHT22;5317;49.048;8.468;2022-12-18T13:40:57;24.30;37.10
10538;DHT22;5317;49.048;8.468;2022-12-18T13:43:40;24.30;36.80
10538;DHT22;5317;49.048;8.468;2022-12-18T13:46:24;24.30;36.90
10538;DHT22;5317;49.048;8.468;2022-12-18T13:48:57;24.30;37.00
10538;DHT22;5317;49.048;8.468;2022-12-18T13:51:29;24.30;37.00
10538;DHT22;5317;49.048;8.468;2022-12-18T13:54:24;24.30;36.90
10538;DHT22;5317;49.048;8.468;2022-12-18T13:56:57;24.30;37.00
10538;DHT22;5317;49.048;8.468;2022-12-18T13:59:37;24.30;36.90
10538;DHT22;5317;49.048;8.468;2022-12-18T14:02:13;24.30;36.90
10538;DHT22;5317;49.048;8.468;2022-12-18T14:04:44;24.30;36.90
10538;DHT22;5317;49.048;8.468;2022-12-18T14:07:18;24.30;36.90
10538;DHT22;5317;49.048;8.468;2022-12-18T14:09:55;24.30;36.90
10538;DHT22;5317;49.048;8.468;2022-12-18T14:12:32;24.30;36.80
10538;DHT22;5317;49.048;8.468;2022-12-18T14:15:24;24.30;36.80
10538;DHT22;5317;49.048;8.468;2022-12-18T14:18:09;24.30;36.80
10538;DHT22;5317;49.048;8.468;2022-12-18T14:20:48;24.30;36.80
10538;DHT22;5317;49.048;8.468;2022-12-18T14:23:31;24.30;36.80
10538;DHT22;5317;49.048;8.468;2022-12-18T14:26:22;24.30;36.80
10538;DHT22;5317;49.048;8.468;2022-12-18T14:28:55;24.30;36.80
10538;DHT22;5317;49.048;8.468;2022-12-18T14:31:25;24.30;36.70
10538;DHT22;5317;49.048;8.468;2022-12-18T14:33:54;24.30;36.80
10538;DHT22;5317;49.048;8.468;2022-12-18T14:36:23;24.30;36.70
10538;DHT22;5317;49.048;8.468;2022-12-18T14:38:53;24.30;36.80
10538;DHT22;5317;49.048;8.468;2022-12-18T14:41:23;24.30;36.80
10538;DHT22;5317;49.048;8.468;2022-12-18T14:44:07;24.30;36.80
10538;DHT22;5317;49.048;8.468;2022-12-18T14:46:39;24.30;36.80
10538;DHT22;5317;49.048;8.468;2022-12-18T14:49:20;24.30;36.80
10538;DHT22;5317;49.048;8.468;2022-12-18T14:51:55;24.30;36.80
10538;DHT22;5317;49.048;8.468;2022-12-18T14:54:25;24.30;36.80
10538;DHT22;5317;49.048;8.468;2022-12-18T14:57:03;24.30;36.80
10538;DHT22;5317;49.048;8.468;2022-12-18T14:59:48;24.30;36.80
10538;DHT22;5317;49.048;8.468;2022-12-18T15:02:22;24.30;36.70
10538;DHT22;5317;49.048;8.468;2022-12-18T15:05:32;24.30;36.70
10538;DHT22;5317;49.048;8.468;2022-12-18T15:10:56;24.30;36.80
10538;DHT22;5317;49.048;8.468;2022-12-18T15:13:27;24.30;36.70
10538;DHT22;5317;49.048;8.468;2022-12-18T15:15:56;24.30;36.70
10538;DHT22;5317;49.048;8.468;2022-12-18T15:18:33;24.30;36.80
10538;DHT22;5317;49.048;8.468;2022-12-18T15:21:18;24.30;36.80
10538;DHT22;5317;49.048;8.468;2022-12-18T15:23:48;24.30;36.80
10538;DHT22;5317;49.048;8.468;2022-12-18T15:26:20;24.30;36.80
10538;DHT22;5317;49.048;8.468;2022-12-18T15:28:50;24.30;36.80
10538;DHT22;5317;49.048;8.468;2022-12-18T15:31:29;24.30;36.80
10538;DHT22;5317;49.048;8.468;2022-12-18T15:36:53;24.30;36.80
10538;DHT22;5317;49.048;8.468;2022-12-18T15:39:20;24.30;35.80
10538;DHT22;5317;49.048;8.468;2022-12-18T15:41:52;24.20;36.40
10538;DHT22;5317;49.048;8.468;2022-12-18T15:44:40;24.20;36.50
10538;DHT22;5317;49.048;8.468;2022-12-18T15:47:11;24.20;36.60
10538;DHT22;5317;49.048;8.468;2022-12-18T15:49:42;24.20;36.70
10538;DHT22;5317;49.048;8.468;2022-12-18T15:52:23;24.20;36.60
10538;DHT22;5317;49.048;8.468;2022-12-18T15:58:25;24.20;36.80
10538;DHT22;5317;49.048;8.468;2022-12-18T16:00:53;24.20;36.80
10538;DHT22;5317;49.048;8.468;2022-12-18T16:03:22;24.20;36.90
10538;DHT22;5317;49.048;8.468;2022-12-18T16:06:09;24.30;36.40
10538;DHT22;5317;49.048;8.468;2022-12-18T16:08:39;24.30;37.00
10538;DHT22;5317;49.048;8.468;2022-12-18T16:11:08;24.30;36.90
10538;DHT22;5317;49.048;8.468;2022-12-18T16:14:04;24.30;37.10
10538;DHT22;5317;49.048;8.468;2022-12-18T16:16:32;24.40;37.20
10538;DHT22;5317;49.048;8.468;2022-12-18T16:19:00;24.40;37.10
10538;DHT22;5317;49.048;8.468;2022-12-18T16:21:29;24.40;37.10
10538;DHT22;5317;49.048;8.468;2022-12-18T16:23:56;24.40;37.00
10538;DHT22;5317;49.048;8.468;2022-12-18T16:26:23;24.40;37.00
10538;DHT22;5317;49.048;8.468;2022-12-18T16:28:51;24.40;37.00
10538;DHT22;5317;49.048;8.468;2022-12-18T16:31:18;24.50;37.00
10538;DHT22;5317;49.048;8.468;2022-12-18T16:33:46;24.40;37.10
10538;DHT22;5317;49.048;8.468;2022-12-18T16:36:13;24.40;37.00
10538;DHT22;5317;49.048;8.468;2022-12-18T16:38:42;24.40;37.00
10538;DHT22;5317;49.048;8.468;2022-12-18T16:41:18;24.40;37.00
10538;DHT22;5317;49.048;8.468;2022-12-18T16:43:57;24.40;37.00